Погода Шалатонина 2 недели

Смоленская область, Россия

23 июля-05 августа
  • 23июля
    Сегодня
    +12°
    +26°
    Ясно и безоблачно
    ВремяПогодаТемператураВлажностьДавлениеВетер, м/сВероятность осадков
    00:00Ясно и безоблачно+15°C96 %745 мм2.4 м/с1 %
    03:00Ясно и безоблачно+13°C95 %745 мм2.6 м/с2 %
    06:00Ясно и безоблачно+14°C93 %746 мм2.8 м/с2 %
    09:00Ясно и безоблачно+19°C83 %746 мм2.2 м/с2 %
    12:00Практически безоблачно+23°C57 %746 мм3.0 м/с5 %
    15:00Ясно и безоблачно+25°C47 %746 мм3.1 м/с3 %
    18:00Практически безоблачно+24°C44 %746 мм3.1 м/с2 %
    21:00Практически безоблачно+19°C61 %746 мм2.5 м/с2 %
  • 24июля
    Среда
    +11°
    +26°
    Ясно и безоблачно
    ВремяПогодаТемператураВлажностьДавлениеВетер, м/сВероятность осадков
    00:00Ясно и безоблачно+15°C79 %746 мм1.8 м/с2 %
    03:00Ясно и безоблачно+13°C89 %746 мм1.9 м/с2 %
    06:00Небольшая облачность+14°C85 %746 мм1.8 м/с2 %
    09:00Небольшая облачность+20°C67 %746 мм1.8 м/с2 %
    12:00Ясно и безоблачно+24°C52 %746 мм2.6 м/с7 %
    15:00Ясно и безоблачно+26°C43 %745 мм2.5 м/с4 %
    18:00Ясно и безоблачно+26°C39 %744 мм0.3 м/с2 %
    21:00Ясно и безоблачно+19°C54 %744 мм2.7 м/с2 %
  • 25июля
    Четверг
    +13°
    +27°
    Облачно с прояснениями
    ВремяПогодаТемператураВлажностьДавлениеВетер, м/сВероятность осадков
    00:00Практически безоблачно+16°C62 %744 мм2.0 м/с2 %
    03:00Ясно и безоблачно+12°C77 %744 мм1.3 м/с2 %
    06:00Ясно и безоблачно+12°C83 %744 мм0.9 м/с2 %
    09:00Ясно и безоблачно+20°C61 %744 мм0.6 м/с2 %
    12:00Небольшая облачность+25°C41 %744 мм1.6 м/с2 %
    15:00Облачно с прояснениями+27°C37 %743 мм0.5 м/с4 %
    18:00Небольшая облачность+26°C43 %743 мм1.6 м/с6 %
    21:00Практически безоблачно+20°C66 %743 мм1.8 м/с2 %
  • 26июля
    Пятница
    +13°
    +26°
    Небольшая облачность
    ВремяПогодаТемператураВлажностьДавлениеВетер, м/сВероятность осадков
    00:00Ясно и безоблачно+16°C81 %743 мм1.7 м/с2 %
    03:00Ясно и безоблачно+14°C87 %743 мм2.0 м/с2 %
    06:00Практически безоблачно+14°C84 %744 мм1.1 м/с2 %
    09:00Ясно и безоблачно+21°C71 %745 мм0.8 м/с2 %
    12:00Ясно и безоблачно+25°C54 %745 мм1.9 м/с23 %
    15:00Небольшая облачность+26°C51 %745 мм2.2 м/с21 %
    18:00Практически безоблачно+25°C55 %746 мм1.6 м/с34 %
    21:00Практически безоблачно+21°C69 %746 мм1.2 м/с12 %
  • 27июля
    Суббота
    +13°
    +27°
    Практически безоблачно
    ВремяПогодаТемператураВлажностьДавлениеВетер, м/сВероятность осадков
    00:00Ясно и безоблачно+16°C86 %747 мм1.2 м/с2 %
    03:00Ясно и безоблачно+14°C94 %747 мм1.8 м/с2 %
    06:00Ясно и безоблачно+14°C93 %748 мм0.9 м/с4 %
    09:00Ясно и безоблачно+22°C69 %749 мм0.8 м/с9 %
    12:00Ясно и безоблачно+26°C58 %749 мм1.3 м/с9 %
    15:00Практически безоблачно+27°C53 %749 мм1.7 м/с23 %
    18:00Небольшая облачность, возможен дождь с грозой+26°C57 %748 мм1.1 м/с44 %
    21:00Облачно с прояснениями+21°C70 %749 мм0.4 м/с16 %
Мы используем cookies
Соглашаюсь